createdAt,value
2018-11-28T00:00:14.941Z,99.23
2018-11-28T00:02:43.450Z,112.33
2018-11-28T00:05:13.198Z,98.57
2018-11-28T00:07:42.162Z,97.20
2018-11-28T00:10:12.639Z,108.47
2018-11-28T00:12:41.516Z,100.33
2018-11-28T00:15:11.452Z,100.47
2018-11-28T00:17:39.955Z,102.67
2018-11-28T00:20:12.628Z,103.47
2018-11-28T00:22:41.223Z,96.90
2018-11-28T00:25:10.627Z,103.53
2018-11-28T00:27:39.156Z,105.67
2018-11-28T00:30:10.333Z,99.50
2018-11-28T00:32:38.832Z,97.80
2018-11-28T00:35:08.773Z,90.83
2018-11-28T00:37:37.277Z,98.37
2018-11-28T00:40:06.382Z,102.33
2018-11-28T00:42:34.935Z,87.53
2018-11-28T00:45:03.434Z,89.20
2018-11-28T00:47:31.938Z,92.93
2018-11-28T00:50:00.427Z,86.63
2018-11-28T00:52:28.950Z,83.23
2018-11-28T00:54:57.470Z,95.53
2018-11-28T00:57:26.019Z,89.53
2018-11-28T00:59:54.544Z,89.50
2018-11-28T01:02:23.060Z,89.93
2018-11-28T01:04:51.556Z,89.27
2018-11-28T01:07:20.073Z,88.57
2018-11-28T01:09:48.557Z,87.77
2018-11-28T01:12:17.094Z,91.27
2018-11-28T01:14:45.593Z,86.70
2018-11-28T01:17:14.105Z,90.33
2018-11-28T01:19:42.621Z,92.40
2018-11-28T01:22:11.116Z,87.13
2018-11-28T01:24:39.629Z,95.67
2018-11-28T01:27:08.146Z,85.73
2018-11-28T01:29:36.663Z,86.50
2018-11-28T01:32:05.212Z,89.90
2018-11-28T01:34:33.714Z,88.13
2018-11-28T01:37:02.264Z,93.87
2018-11-28T01:39:30.767Z,93.17
2018-11-28T01:41:59.295Z,96.83
2018-11-28T01:44:27.813Z,87.83
2018-11-28T01:46:56.342Z,89.57
2018-11-28T01:49:24.854Z,82.33
2018-11-28T01:51:53.381Z,88.83
2018-11-28T01:54:21.885Z,88.30
2018-11-28T01:56:50.405Z,81.80
2018-11-28T01:59:18.917Z,86.13
2018-11-28T02:01:47.425Z,86.57
2018-11-28T02:04:15.926Z,92.90
2018-11-28T02:06:44.438Z,95.57
2018-11-28T02:09:12.949Z,81.63
2018-11-28T02:11:41.437Z,81.30
2018-11-28T02:14:09.974Z,90.13
2018-11-28T02:16:38.482Z,94.60
2018-11-28T02:19:07.049Z,91.27
2018-11-28T02:21:35.578Z,90.50
2018-11-28T02:24:04.104Z,91.90
2018-11-28T02:26:32.614Z,87.20
2018-11-28T02:29:01.113Z,90.17
2018-11-28T02:31:29.633Z,90.93
2018-11-28T02:33:58.187Z,91.80
2018-11-28T02:36:26.708Z,84.97
2018-11-28T02:38:55.208Z,87.63
2018-11-28T02:41:23.726Z,90.20
2018-11-28T02:43:52.241Z,80.43
2018-11-28T02:46:29.982Z,76.20
2018-11-28T02:48:58.533Z,77.80
2018-11-28T02:51:27.058Z,84.70
2018-11-28T02:53:55.587Z,80.63
2018-11-28T02:56:24.093Z,76.13
2018-11-28T02:58:52.604Z,82.00
2018-11-28T03:01:21.113Z,79.03
2018-11-28T03:03:49.645Z,76.77
2018-11-28T03:06:18.151Z,69.30
2018-11-28T03:08:46.643Z,75.70
2018-11-28T03:11:15.145Z,67.43
2018-11-28T03:13:43.654Z,73.07
2018-11-28T03:16:18.820Z,64.80
2018-11-28T03:18:47.911Z,81.87
2018-11-28T03:21:16.548Z,75.63
2018-11-28T03:23:45.112Z,83.00
2018-11-28T03:26:13.624Z,82.50
2018-11-28T03:28:42.110Z,75.00
2018-11-28T03:31:10.638Z,77.70
2018-11-28T03:33:39.159Z,73.57
2018-11-28T03:36:07.693Z,83.13
2018-11-28T03:38:36.221Z,77.00
2018-11-28T03:41:04.739Z,81.27
2018-11-28T03:43:33.240Z,83.97
2018-11-28T03:46:01.752Z,79.77
2018-11-28T03:48:30.253Z,73.70
2018-11-28T03:51:00.507Z,78.53
2018-11-28T03:53:27.371Z,75.93
2018-11-28T03:55:55.903Z,78.73
2018-11-28T03:58:24.443Z,72.03
2018-11-28T04:00:52.951Z,75.80
2018-11-28T04:03:21.478Z,73.23
2018-11-28T04:05:49.966Z,76.87
2018-11-28T04:08:18.467Z,78.63
2018-11-28T04:10:47.002Z,84.37
2018-11-28T04:13:15.493Z,85.33
2018-11-28T04:15:44.037Z,79.67
2018-11-28T04:18:12.552Z,82.90
2018-11-28T04:20:41.046Z,86.43
2018-11-28T04:23:09.538Z,81.03
2018-11-28T04:25:38.049Z,81.40
2018-11-28T04:28:06.559Z,86.47
2018-11-28T04:30:35.130Z,85.93
2018-11-28T04:33:03.612Z,82.03
2018-11-28T04:35:32.123Z,77.07
2018-11-28T04:38:00.625Z,83.43
2018-11-28T04:40:29.156Z,80.87
2018-11-28T04:42:57.665Z,82.70
2018-11-28T04:45:26.221Z,81.67
2018-11-28T04:47:55.638Z,79.47
2018-11-28T04:50:24.161Z,81.80
2018-11-28T04:52:52.678Z,86.20
2018-11-28T04:55:21.450Z,88.90
2018-11-28T04:57:50.141Z,83.43
2018-11-28T05:00:20.727Z,84.63
2018-11-28T05:02:49.400Z,84.33
2018-11-28T05:05:18.082Z,84.53
2018-11-28T05:07:47.458Z,83.67
2018-11-28T05:10:17.686Z,84.10
2018-11-28T05:12:46.269Z,85.63
2018-11-28T05:15:16.869Z,85.67
2018-11-28T05:17:46.515Z,86.43
2018-11-28T05:20:15.987Z,85.27
2018-11-28T05:22:44.495Z,80.70
2018-11-28T05:25:14.549Z,88.83
2018-11-28T05:27:43.055Z,91.60
2018-11-28T05:30:15.740Z,88.67
2018-11-28T05:32:44.241Z,93.53
2018-11-28T05:35:23.647Z,87.87
2018-11-28T05:37:52.161Z,85.50
2018-11-28T05:40:21.719Z,85.13
2018-11-28T05:42:50.228Z,84.63
2018-11-28T05:45:18.785Z,80.90
2018-11-28T05:47:47.307Z,87.43
2018-11-28T05:50:16.958Z,86.17
2018-11-28T05:52:45.479Z,93.87
2018-11-28T05:55:14.834Z,84.20
2018-11-28T05:57:44.098Z,85.57
2018-11-28T06:00:43.760Z,84.83
2018-11-28T06:03:13.182Z,84.87
2018-11-28T06:05:42.453Z,86.83
2018-11-28T06:08:10.961Z,82.13
2018-11-28T06:10:39.471Z,83.87
2018-11-28T06:13:08.027Z,79.23
2018-11-28T06:15:36.601Z,79.63
2018-11-28T06:18:05.144Z,78.23
2018-11-28T06:20:33.717Z,76.87
2018-11-28T06:23:02.192Z,77.63
2018-11-28T06:25:30.719Z,88.23
2018-11-28T06:27:59.229Z,80.50
2018-11-28T06:30:27.745Z,82.33
2018-11-28T06:32:56.257Z,84.67
2018-11-28T06:35:24.759Z,79.03
2018-11-28T06:37:53.286Z,80.13
2018-11-28T06:40:24.275Z,81.50
2018-11-28T06:42:50.374Z,75.60
2018-11-28T06:45:21.125Z,82.33
2018-11-28T06:47:49.655Z,78.03
2018-11-28T06:50:19.122Z,79.10
2018-11-28T06:52:49.694Z,80.53
2018-11-28T06:55:19.461Z,73.33
2018-11-28T06:57:47.982Z,85.03
2018-11-28T07:00:23.528Z,81.77
2018-11-28T07:02:53.798Z,86.07
2018-11-28T07:05:23.118Z,75.57
2018-11-28T07:07:51.933Z,81.60
2018-11-28T07:10:21.408Z,84.93
2018-11-28T07:12:49.910Z,80.43
2018-11-28T07:15:19.731Z,88.67
2018-11-28T07:17:48.255Z,84.67
2018-11-28T07:20:17.303Z,82.20
2018-11-28T07:22:45.893Z,85.40
2018-11-28T07:25:15.491Z,78.00
2018-11-28T07:27:45.336Z,80.67
2018-11-28T07:30:21.444Z,73.53
2018-11-28T07:32:51.273Z,83.90
2018-11-28T07:35:19.892Z,85.10
2018-11-28T07:37:48.413Z,90.23
2018-11-28T07:40:22.038Z,79.63
2018-11-28T07:43:09.664Z,80.07
2018-11-28T07:45:39.541Z,79.70
2018-11-28T07:48:08.034Z,80.47
2018-11-28T07:50:36.598Z,79.43
2018-11-28T07:53:05.226Z,79.63
2018-11-28T07:55:33.747Z,82.33
2018-11-28T07:58:02.239Z,86.40
2018-11-28T08:00:30.817Z,77.23
2018-11-28T08:02:59.344Z,81.17
2018-11-28T08:05:27.868Z,81.53
2018-11-28T08:07:56.365Z,79.57
2018-11-28T08:10:25.855Z,76.90
2018-11-28T08:12:55.435Z,77.30
2018-11-28T08:15:23.970Z,80.13
2018-11-28T08:17:52.555Z,81.73
2018-11-28T08:20:21.089Z,82.57
2018-11-28T08:22:49.587Z,79.90
2018-11-28T08:25:18.443Z,79.87
2018-11-28T08:27:48.053Z,77.20
2018-11-28T08:30:17.794Z,81.37
2018-11-28T08:32:46.312Z,79.80
2018-11-28T08:35:14.882Z,79.33
2018-11-28T08:37:43.373Z,78.90
2018-11-28T08:40:14.053Z,74.47
2018-11-28T08:42:42.605Z,74.70
2018-11-28T08:45:12.825Z,79.23
2018-11-28T08:47:41.322Z,80.17
2018-11-28T08:50:12.505Z,80.50
2018-11-28T08:52:41.010Z,79.60
2018-11-28T08:55:11.089Z,75.67
2018-11-28T08:57:39.593Z,73.70
2018-11-28T09:00:15.433Z,83.60
2018-11-28T09:02:44.157Z,78.10
2018-11-28T09:05:13.299Z,77.77
2018-11-28T09:07:41.806Z,78.27
2018-11-28T09:10:13.468Z,76.70
2018-11-28T09:12:41.985Z,76.93
2018-11-28T09:15:21.372Z,82.43
2018-11-28T09:17:49.860Z,84.50
2018-11-28T09:20:18.380Z,79.53
2018-11-28T09:22:46.877Z,79.67
2018-11-28T09:25:16.355Z,81.80
2018-11-28T09:27:49.767Z,78.10
2018-11-28T09:30:19.032Z,74.93
2018-11-28T09:32:48.334Z,82.87
2018-11-28T09:35:17.059Z,73.63
2018-11-28T09:37:46.180Z,81.57
2018-11-28T09:40:28.637Z,78.60
2018-11-28T09:42:59.217Z,77.03
2018-11-28T09:45:27.943Z,75.17
2018-11-28T09:47:56.432Z,78.77
2018-11-28T09:50:25.980Z,70.93
2018-11-28T09:52:54.532Z,71.97
2018-11-28T09:55:24.910Z,72.23
2018-11-28T09:57:53.485Z,73.30
2018-11-28T10:00:27.132Z,76.13
2018-11-28T10:02:56.915Z,63.67
2018-11-28T10:05:27.761Z,66.60
2018-11-28T10:07:56.317Z,61.50
2018-11-28T10:10:24.822Z,71.03
2018-11-28T10:12:53.362Z,65.40
2018-11-28T10:15:24.042Z,68.87
2018-11-28T10:17:52.581Z,71.10
2018-11-28T10:20:21.206Z,66.57
2018-11-28T10:22:50.803Z,66.07
2018-11-28T10:25:20.316Z,62.07
2018-11-28T10:27:51.126Z,65.47
2018-11-28T10:30:21.749Z,65.30
2018-11-28T10:32:50.982Z,60.13
2018-11-28T10:35:19.491Z,62.63
2018-11-28T10:37:47.998Z,64.93
2018-11-28T10:40:18.279Z,64.07
2018-11-28T10:42:47.990Z,63.57
2018-11-28T10:45:17.721Z,67.63
2018-11-28T10:47:46.213Z,61.83
2018-11-28T10:50:15.446Z,65.30
2018-11-28T10:52:44.024Z,65.07
2018-11-28T10:55:19.410Z,65.53
2018-11-28T10:57:47.914Z,67.53
2018-11-28T11:00:29.554Z,66.37
2018-11-28T11:03:03.250Z,65.00
2018-11-28T11:05:37.106Z,65.90
2018-11-28T11:08:11.191Z,61.83
2018-11-28T11:10:44.911Z,58.23
2018-11-28T11:13:18.482Z,62.00
2018-11-28T11:15:52.281Z,61.43
2018-11-28T11:18:20.970Z,61.43
2018-11-28T11:20:49.478Z,67.70
2018-11-28T11:23:17.981Z,67.07
2018-11-28T11:25:46.476Z,61.90
2018-11-28T11:28:15.000Z,63.93
2018-11-28T11:30:43.619Z,66.67
2018-11-28T11:33:12.166Z,63.57
2018-11-28T11:35:41.002Z,66.93
2018-11-28T11:38:09.552Z,63.33
2018-11-28T11:40:38.040Z,63.00
2018-11-28T11:43:06.790Z,61.83
2018-11-28T11:45:35.347Z,62.30
2018-11-28T11:48:03.846Z,59.80
2018-11-28T11:50:32.363Z,57.80
2018-11-28T11:53:00.853Z,57.30
2018-11-28T11:55:29.366Z,56.53
2018-11-28T11:57:57.912Z,60.00
2018-11-28T12:00:27.237Z,59.20
2018-11-28T12:03:01.362Z,57.33
2018-11-28T12:05:29.866Z,57.90
2018-11-28T12:07:58.365Z,52.37
2018-11-28T12:10:26.873Z,54.17
2018-11-28T12:12:55.398Z,56.73
2018-11-28T12:15:23.897Z,58.27
2018-11-28T12:17:52.563Z,56.67
2018-11-28T12:20:27.890Z,63.90
2018-11-28T12:22:56.633Z,64.37
2018-11-28T12:25:25.561Z,56.07
2018-11-28T12:27:54.182Z,59.17
2018-11-28T12:30:22.805Z,54.47
2018-11-28T12:32:51.426Z,56.47
2018-11-28T12:35:20.450Z,58.23
2018-11-28T12:37:49.076Z,59.47
2018-11-28T12:40:17.970Z,62.43
2018-11-28T12:42:50.156Z,60.00
2018-11-28T12:45:19.942Z,56.37
2018-11-28T12:47:48.894Z,59.83
2018-11-28T12:50:20.182Z,54.87
2018-11-28T12:52:48.927Z,56.10
2018-11-28T12:55:18.409Z,57.20
2018-11-28T12:57:47.164Z,52.30
2018-11-28T13:00:16.879Z,58.47
2018-11-28T13:02:45.517Z,61.10
2018-11-28T13:05:17.237Z,53.53
2018-11-28T13:07:45.892Z,57.20
2018-11-28T13:10:20.827Z,59.60
2018-11-28T13:12:51.166Z,59.07
2018-11-28T13:15:21.336Z,57.87
2018-11-28T13:17:49.979Z,59.17
2018-11-28T13:20:19.743Z,57.53
2018-11-28T13:22:49.869Z,57.10
2018-11-28T13:25:20.294Z,63.17
2018-11-28T13:27:48.848Z,57.53
2018-11-28T13:30:19.501Z,60.80
2018-11-28T13:32:48.721Z,65.97
2018-11-28T13:35:32.980Z,61.20
2018-11-28T13:38:07.806Z,66.93
2018-11-28T13:40:37.253Z,82.30
2018-11-28T13:43:06.265Z,59.57
2018-11-28T13:45:38.583Z,70.30
2018-11-28T13:48:07.224Z,63.53
2018-11-28T13:50:35.918Z,62.73
2018-11-28T13:53:09.120Z,64.00
2018-11-28T13:55:42.985Z,66.67
2018-11-28T13:58:11.562Z,63.27
2018-11-28T14:00:40.153Z,68.37
2018-11-28T14:03:08.813Z,67.90
2018-11-28T14:05:37.482Z,68.10
2018-11-28T14:08:06.661Z,62.20
2018-11-28T14:10:35.373Z,69.80
2018-11-28T14:13:04.125Z,74.50
2018-11-28T14:15:32.839Z,67.43
2018-11-28T14:18:04.300Z,68.50
2018-11-28T14:20:32.964Z,65.57
2018-11-28T14:23:01.494Z,64.77
2018-11-28T14:25:30.218Z,72.50
2018-11-28T14:27:58.901Z,67.87
2018-11-28T14:30:27.385Z,72.83
2018-11-28T14:32:55.868Z,72.50
2018-11-28T14:35:24.608Z,67.50
2018-11-28T14:37:53.430Z,71.93
2018-11-28T14:40:23.018Z,69.90
2018-11-28T14:42:54.116Z,75.83
2018-11-28T14:45:22.866Z,71.27
2018-11-28T14:47:52.234Z,74.87
2018-11-28T14:50:23.841Z,69.10
2018-11-28T14:52:53.229Z,72.67
2018-11-28T14:55:22.898Z,69.97
2018-11-28T14:57:51.657Z,68.43
2018-11-28T15:00:25.979Z,71.53
2018-11-28T15:02:55.982Z,76.17
2018-11-28T15:06:34.649Z,74.27
2018-11-28T15:09:08.299Z,68.57
2018-11-28T15:11:36.813Z,71.10
2018-11-28T15:14:05.320Z,69.03
2018-11-28T15:16:33.849Z,69.97
2018-11-28T15:19:02.379Z,69.43
2018-11-28T15:21:31.028Z,63.70
2018-11-28T15:23:59.815Z,64.67
2018-11-28T15:26:28.585Z,75.53
2018-11-28T15:28:57.278Z,76.23
2018-11-28T15:31:25.854Z,71.40
2018-11-28T15:33:54.694Z,64.47
2018-11-28T15:36:23.378Z,66.00
2018-11-28T15:38:52.152Z,65.73
2018-11-28T15:41:21.097Z,68.67
2018-11-28T15:43:49.751Z,65.27
2018-11-28T15:46:18.469Z,71.70
2018-11-28T15:48:47.112Z,73.40
2018-11-28T15:51:15.636Z,71.57
2018-11-28T15:53:44.193Z,78.73
2018-11-28T15:56:12.814Z,82.30
2018-11-28T15:58:41.326Z,80.60
2018-11-28T16:01:09.875Z,83.70
2018-11-28T16:03:38.373Z,79.30
2018-11-28T16:06:07.884Z,87.17
2018-11-28T16:08:36.402Z,85.23
2018-11-28T16:11:08.426Z,82.07
2018-11-28T16:13:37.025Z,85.50
2018-11-28T16:16:06.400Z,83.20
2018-11-28T16:18:34.918Z,84.53
2018-11-28T16:21:03.414Z,82.73
2018-11-28T16:23:31.923Z,81.37
2018-11-28T16:26:00.427Z,77.33
2018-11-28T16:28:28.929Z,79.70
2018-11-28T16:30:57.458Z,84.50
2018-11-28T16:33:25.970Z,84.20
2018-11-28T16:35:54.492Z,86.57
2018-11-28T16:38:23.019Z,92.57
2018-11-28T16:40:51.514Z,98.33
2018-11-28T16:43:20.060Z,89.83
2018-11-28T16:45:48.577Z,84.47
2018-11-28T16:48:17.091Z,88.73
2018-11-28T16:50:45.594Z,90.93
2018-11-28T16:53:14.123Z,89.73
2018-11-28T16:55:42.642Z,86.47
2018-11-28T16:58:11.150Z,91.73
2018-11-28T17:00:41.307Z,94.23
2018-11-28T17:03:09.811Z,93.77
2018-11-28T17:05:38.510Z,94.63
2018-11-28T17:08:08.671Z,87.50
2018-11-28T17:10:37.190Z,88.67
2018-11-28T17:13:06.068Z,88.97
2018-11-28T17:15:34.558Z,92.27
2018-11-28T17:18:03.064Z,93.37
2018-11-28T17:20:32.567Z,87.67
2018-11-28T17:23:01.061Z,87.10
2018-11-28T17:25:30.808Z,86.80
2018-11-28T17:27:59.437Z,83.17
2018-11-28T17:30:29.014Z,87.00
2018-11-28T17:32:57.560Z,90.80
2018-11-28T17:35:26.054Z,90.43
2018-11-28T17:37:54.710Z,94.93
2018-11-28T17:40:26.122Z,85.57
2018-11-28T17:42:55.834Z,97.30
2018-11-28T17:45:24.534Z,90.73
2018-11-28T17:47:53.141Z,85.13
2018-11-28T17:50:23.626Z,88.93
2018-11-28T17:53:04.502Z,88.30
2018-11-28T17:55:35.769Z,91.23
2018-11-28T17:58:04.267Z,93.63
2018-11-28T18:00:32.803Z,90.13
2018-11-28T18:03:01.512Z,96.80
2018-11-28T18:05:30.044Z,87.17
2018-11-28T18:07:58.569Z,86.27
2018-11-28T18:10:27.112Z,92.57
2018-11-28T18:13:30.611Z,89.70
2018-11-28T18:15:59.136Z,82.20
2018-11-28T18:18:27.629Z,88.13
2018-11-28T18:20:56.151Z,86.63
2018-11-28T18:23:24.690Z,90.93
2018-11-28T18:25:53.235Z,86.60
2018-11-28T18:28:21.759Z,83.30
2018-11-28T18:30:50.258Z,94.13
2018-11-28T18:33:18.759Z,85.27
2018-11-28T18:35:47.261Z,94.77
2018-11-28T18:38:15.778Z,90.47
2018-11-28T18:40:44.294Z,89.07
2018-11-28T18:43:13.370Z,88.33
2018-11-28T18:45:50.349Z,90.93
2018-11-28T18:48:18.861Z,95.93
2018-11-28T18:50:47.430Z,92.63
2018-11-28T18:53:16.005Z,89.73
2018-11-28T18:55:44.552Z,95.37
2018-11-28T18:58:14.409Z,88.83
2018-11-28T19:00:42.944Z,88.67
2018-11-28T19:03:11.481Z,96.47
2018-11-28T19:05:40.015Z,90.63
2018-11-28T19:08:08.905Z,87.47
2018-11-28T19:10:37.449Z,80.43
2018-11-28T19:13:05.988Z,81.83
2018-11-28T19:15:34.502Z,78.20
2018-11-28T19:18:03.877Z,72.43
2018-11-28T19:20:32.422Z,77.83
2018-11-28T19:23:00.917Z,80.37
2018-11-28T19:25:29.950Z,80.53
2018-11-28T19:27:58.475Z,78.43
2018-11-28T19:30:35.304Z,80.70
2018-11-28T19:33:03.831Z,80.70
2018-11-28T19:35:32.339Z,84.10
2018-11-28T19:38:00.932Z,83.43
2018-11-28T19:40:39.466Z,88.57
2018-11-28T19:43:07.982Z,74.47
2018-11-28T19:45:36.526Z,74.67
2018-11-28T19:48:05.374Z,69.73
2018-11-28T19:50:34.959Z,73.87
2018-11-28T19:53:03.475Z,71.67
2018-11-28T19:55:32.007Z,75.63
2018-11-28T19:58:00.507Z,71.20
2018-11-28T20:00:29.032Z,76.03
2018-11-28T20:02:57.534Z,71.87
2018-11-28T20:05:26.044Z,73.87
2018-11-28T20:07:54.682Z,74.77
2018-11-28T20:10:23.759Z,75.17
2018-11-28T20:12:52.352Z,72.70
2018-11-28T20:15:23.077Z,76.10
2018-11-28T20:17:51.800Z,78.27
2018-11-28T20:20:20.871Z,72.00
2018-11-28T20:22:49.491Z,76.80
2018-11-28T20:25:19.074Z,82.10
2018-11-28T20:27:49.905Z,74.77
2018-11-28T20:30:19.997Z,76.20
2018-11-28T20:32:48.498Z,75.83
2018-11-28T20:35:17.024Z,73.37
2018-11-28T20:37:45.573Z,73.53
2018-11-28T20:40:16.133Z,73.63
2018-11-28T20:42:46.946Z,74.53
2018-11-28T20:45:15.570Z,69.07
2018-11-28T20:47:44.105Z,72.07
2018-11-28T20:50:24.425Z,74.60
2018-11-28T20:52:55.105Z,76.93
2018-11-28T20:55:23.296Z,72.17
2018-11-28T20:57:51.838Z,85.43
2018-11-28T21:00:21.893Z,77.23
2018-11-28T21:02:51.137Z,76.10
2018-11-28T21:05:19.694Z,77.73
2018-11-28T21:07:48.217Z,79.23
2018-11-28T21:10:22.290Z,82.07
2018-11-28T21:12:50.795Z,79.07
2018-11-28T21:15:19.307Z,80.03
2018-11-28T21:17:48.053Z,78.73
2018-11-28T21:20:20.185Z,71.40
2018-11-28T21:22:54.998Z,77.20
2018-11-28T21:25:23.507Z,81.80
2018-11-28T21:27:52.022Z,77.40
2018-11-28T21:30:21.418Z,84.37
2018-11-28T21:32:51.159Z,83.57
2018-11-28T21:35:21.615Z,89.13
2018-11-28T21:37:50.122Z,86.60
2018-11-28T21:40:18.632Z,83.17
2018-11-28T21:42:47.512Z,82.07
2018-11-28T21:45:17.239Z,79.97
2018-11-28T21:47:45.766Z,77.93
2018-11-28T21:50:16.073Z,76.17
2018-11-28T21:52:44.658Z,80.40
2018-11-28T21:55:18.160Z,85.80
2018-11-28T21:57:46.685Z,72.57
2018-11-28T22:00:29.808Z,75.67
2018-11-28T22:02:58.328Z,74.97
2018-11-28T22:05:27.898Z,79.23
2018-11-28T22:07:56.517Z,78.77
2018-11-28T22:10:26.357Z,74.10
2018-11-28T22:12:56.281Z,75.97
2018-11-28T22:15:24.884Z,68.20
2018-11-28T22:17:55.541Z,78.87
2018-11-28T22:20:24.773Z,76.93
2018-11-28T22:22:53.465Z,77.20
2018-11-28T22:25:24.762Z,77.50
2018-11-28T22:27:53.324Z,74.80
2018-11-28T22:30:24.766Z,73.37
2018-11-28T22:32:53.303Z,71.20
2018-11-28T22:35:21.817Z,80.40
2018-11-28T22:37:50.319Z,77.77
2018-11-28T22:40:24.049Z,73.20
2018-11-28T22:42:52.550Z,75.33
2018-11-28T22:45:25.125Z,71.40
2018-11-28T22:47:53.726Z,82.77
2018-11-28T22:50:22.274Z,77.43
2018-11-28T22:52:50.778Z,79.17
2018-11-28T22:55:19.474Z,76.67
2018-11-28T22:57:47.989Z,76.20
2018-11-28T23:00:17.538Z,80.47
2018-11-28T23:02:54.324Z,79.27
2018-11-28T23:05:24.526Z,79.27
2018-11-28T23:07:53.018Z,83.80
2018-11-28T23:10:21.546Z,87.20
2018-11-28T23:12:50.125Z,80.00
2018-11-28T23:15:18.646Z,79.23
2018-11-28T23:17:47.177Z,81.57
2018-11-28T23:20:15.722Z,77.10
2018-11-28T23:22:44.212Z,71.83
2018-11-28T23:25:13.090Z,67.53
2018-11-28T23:27:41.584Z,72.93
2018-11-28T23:30:14.431Z,71.87
2018-11-28T23:32:42.951Z,74.37
2018-11-28T23:35:11.973Z,71.50
2018-11-28T23:37:41.484Z,78.10
2018-11-28T23:40:26.791Z,73.73
2018-11-28T23:42:55.889Z,74.67
2018-11-28T23:45:24.960Z,77.97
2018-11-28T23:47:53.492Z,79.10
2018-11-28T23:50:22.715Z,81.63
2018-11-28T23:52:52.364Z,79.10
2018-11-28T23:55:21.745Z,80.37
2018-11-28T23:57:50.264Z,79.67
